Time;durP1;ratioP1;P1;durP2;ratioP2;P2;SDS_P1;SDS_P2;PMS_P1;PMS_P2;Temp;Humidity;BMP_temperature;BMP_pressure;BME280_temperature;BME280_humidity;BME280_pressure;Samples;Min_cycle;Max_cycle;Signal;HPM_P1;HPM_P2
2023/04/22 00:00:28;;;;;;;15.00;7.22;;;8.70;99.90;;;;;;5032159;28;20034;-72
2023/04/22 00:02:55;;;;;;;13.10;7.13;;;8.70;99.90;;;;;;5038877;28;20037;-71
2023/04/22 00:05:26;;;;;;;14.45;6.47;;;8.70;99.90;;;;;;5031300;28;20033;-71
2023/04/22 00:07:52;;;;;;;11.93;6.25;;;8.60;99.90;;;;;;5026821;28;20041;-70
2023/04/22 00:10:24;;;;;;;15.55;7.22;;;8.60;99.90;;;;;;5038852;28;20041;-73
2023/04/22 00:12:49;;;;;;;11.48;6.35;;;8.50;99.90;;;;;;5041772;28;20044;-71
2023/04/22 00:15:19;;;;;;;14.23;6.72;;;8.40;99.90;;;;;;5030571;28;20409;-72
2023/04/22 00:17:44;;;;;;;14.02;6.47;;;8.40;99.90;;;;;;5026022;28;20037;-71
2023/04/22 00:20:10;;;;;;;11.95;5.97;;;8.40;99.90;;;;;;5025125;28;20501;-72
2023/04/22 00:22:36;;;;;;;13.25;6.75;;;8.30;99.90;;;;;;5039457;28;20037;-72
2023/04/22 00:25:05;;;;;;;11.45;6.00;;;8.30;99.90;;;;;;5030795;28;20029;-72
2023/04/22 00:27:33;;;;;;;10.75;5.82;;;8.20;99.90;;;;;;5031144;28;20041;-72
2023/04/22 00:30:05;;;;;;;12.73;6.32;;;8.20;99.90;;;;;;5030696;28;20521;-71
2023/04/22 00:32:31;;;;;;;13.57;7.13;;;8.10;99.90;;;;;;5031985;28;20501;-71
2023/04/22 00:34:56;;;;;;;14.30;7.22;;;8.10;99.90;;;;;;5035373;28;20037;-72
2023/04/22 00:37:23;;;;;;;14.55;7.22;;;8.10;99.90;;;;;;5035081;28;20498;-71
2023/04/22 00:39:52;;;;;;;17.33;7.68;;;8.10;99.90;;;;;;5047568;28;20040;-73
2023/04/22 00:42:24;;;;;;;13.48;6.88;;;8.10;99.90;;;;;;5039299;28;20035;-71
2023/04/22 00:44:50;;;;;;;14.23;7.30;;;8.00;99.90;;;;;;5030502;28;20031;-70
2023/04/22 00:47:16;;;;;;;14.45;6.60;;;8.00;99.90;;;;;;5039064;28;20025;-71
2023/04/22 00:49:42;;;;;;;15.75;7.35;;;7.90;99.90;;;;;;5042693;28;20044;-71
2023/04/22 00:52:08;;;;;;;13.38;7.20;;;7.90;99.90;;;;;;5030972;28;20046;-70
2023/04/22 00:54:34;;;;;;;15.20;7.53;;;7.90;99.90;;;;;;5034648;28;20029;-73
2023/04/22 00:57:01;;;;;;;14.98;7.90;;;7.80;99.90;;;;;;5034007;28;20137;-71
2023/04/22 00:59:27;;;;;;;15.98;7.60;;;7.80;99.90;;;;;;5030651;28;20040;-69
2023/04/22 01:01:53;;;;;;;15.82;7.40;;;7.80;99.90;;;;;;5026005;28;20025;-71
2023/04/22 01:04:22;;;;;;;19.05;8.23;;;7.70;99.90;;;;;;5028368;28;20495;-72
2023/04/22 01:06:50;;;;;;;16.77;8.32;;;7.70;99.90;;;;;;5036152;28;20048;-71
2023/04/22 01:09:17;;;;;;;18.05;9.43;;;7.70;99.90;;;;;;5033771;28;20037;-71
2023/04/22 01:11:46;;;;;;;16.83;8.13;;;7.70;99.90;;;;;;5031273;28;20114;-70
2023/04/22 01:14:15;;;;;;;16.73;8.38;;;7.60;99.90;;;;;;5030865;28;20108;-72
2023/04/22 01:16:42;;;;;;;15.13;7.63;;;7.60;99.90;;;;;;5031793;28;20052;-71
2023/04/22 01:19:09;;;;;;;17.40;8.52;;;7.60;99.90;;;;;;5035458;28;20086;-70
2023/04/22 01:21:35;;;;;;;16.73;8.10;;;7.50;99.90;;;;;;5033809;28;20036;-73
2023/04/22 01:24:01;;;;;;;18.80;8.57;;;7.50;99.90;;;;;;5029943;28;20084;-71
2023/04/22 01:26:27;;;;;;;16.20;8.60;;;7.40;99.90;;;;;;5039993;28;20408;-70
2023/04/22 01:28:52;;;;;;;19.95;9.85;;;7.40;99.90;;;;;;5035222;28;20037;-70
2023/04/22 01:31:18;;;;;;;14.73;7.97;;;7.40;99.90;;;;;;5035723;28;20501;-72
2023/04/22 01:33:44;;;;;;;18.40;7.82;;;7.30;99.90;;;;;;5031757;28;20034;-72
2023/04/22 01:36:10;;;;;;;13.85;7.90;;;7.30;99.90;;;;;;5038672;28;20030;-73
2023/04/22 01:38:36;;;;;;;17.13;8.60;;;7.20;99.90;;;;;;5030159;28;20061;-70
2023/04/22 01:41:05;;;;;;;17.58;8.13;;;7.20;99.90;;;;;;5047022;28;20087;-72
2023/04/22 01:43:31;;;;;;;19.80;8.95;;;7.10;99.90;;;;;;5030653;28;20040;-71
2023/04/22 01:46:00;;;;;;;18.00;9.90;;;7.10;99.90;;;;;;5034380;28;20033;-71
2023/04/22 01:48:26;;;;;;;17.30;8.90;;;7.10;99.90;;;;;;5037867;28;20029;-70
2023/04/22 01:50:52;;;;;;;22.00;9.68;;;7.10;99.90;;;;;;5033835;28;20587;-72
2023/04/22 01:53:18;;;;;;;18.67;10.05;;;7.10;99.90;;;;;;5039066;28;20051;-72
2023/04/22 01:55:43;;;;;;;24.63;11.30;;;7.10;99.90;;;;;;5025325;28;20033;-72
2023/04/22 01:58:18;;;;;;;22.98;10.25;;;7.00;99.90;;;;;;5034374;28;20030;-71
2023/04/22 02:00:44;;;;;;;19.55;9.65;;;7.00;99.90;;;;;;5034794;28;20512;-70
2023/04/22 02:03:13;;;;;;;19.75;9.93;;;7.00;99.90;;;;;;5038134;28;20025;-72
2023/04/22 02:05:39;;;;;;;19.13;9.20;;;6.90;99.90;;;;;;5035920;28;20094;-72
2023/04/22 02:08:07;;;;;;;20.77;9.85;;;6.90;99.90;;;;;;5037366;28;20401;-71
2023/04/22 02:10:33;;;;;;;18.50;9.13;;;6.90;99.90;;;;;;5031014;28;20660;-73
2023/04/22 02:12:59;;;;;;;21.67;10.20;;;6.80;99.90;;;;;;5025366;28;20036;-71
2023/04/22 02:15:24;;;;;;;18.00;8.82;;;6.80;99.90;;;;;;5029000;28;20033;-72
2023/04/22 02:17:50;;;;;;;20.75;9.63;;;6.80;99.90;;;;;;5029227;28;20044;-70
2023/04/22 02:20:15;;;;;;;19.27;8.95;;;6.70;99.90;;;;;;5034666;28;20025;-72
2023/04/22 02:22:42;;;;;;;17.55;8.35;;;6.70;99.90;;;;;;5031721;28;20037;-71
2023/04/22 02:25:11;;;;;;;18.45;9.15;;;6.60;99.90;;;;;;5027320;28;20053;-71
2023/04/22 02:27:36;;;;;;;19.23;9.43;;;6.60;99.90;;;;;;5029583;28;20055;-69
2023/04/22 02:30:02;;;;;;;22.30;10.52;;;6.60;99.90;;;;;;5031519;28;20556;-72
2023/04/22 02:32:28;;;;;;;21.15;10.00;;;6.60;99.90;;;;;;5033471;28;20037;-74
2023/04/22 02:34:58;;;;;;;21.10;10.30;;;6.60;99.90;;;;;;5034560;28;20028;-70
2023/04/22 02:37:23;;;;;;;21.92;10.32;;;6.70;99.90;;;;;;5035939;28;20107;-72
2023/04/22 02:39:49;;;;;;;20.77;10.20;;;6.70;99.90;;;;;;5030384;28;20431;-71
2023/04/22 02:42:14;;;;;;;22.00;9.88;;;6.70;99.90;;;;;;5026180;28;20125;-70
2023/04/22 02:44:40;;;;;;;18.85;9.68;;;6.70;99.90;;;;;;5031276;28;20116;-72
2023/04/22 02:47:06;;;;;;;17.17;9.65;;;6.70;99.90;;;;;;5042830;28;20496;-72
2023/04/22 02:49:32;;;;;;;19.17;9.73;;;6.70;99.90;;;;;;5033796;28;20425;-71
2023/04/22 02:52:00;;;;;;;21.58;10.48;;;6.60;99.90;;;;;;5035545;28;20037;-69
2023/04/22 02:54:29;;;;;;;19.88;10.00;;;6.60;99.90;;;;;;5035977;28;20068;-72
2023/04/22 02:56:54;;;;;;;19.23;9.57;;;6.60;99.90;;;;;;5040853;28;20070;-71
2023/04/22 02:59:20;;;;;;;20.13;9.40;;;6.60;99.90;;;;;;5039471;28;20036;-71
2023/04/22 03:01:45;;;;;;;18.35;9.18;;;6.60;99.90;;;;;;5037493;28;20060;-71
2023/04/22 03:04:12;;;;;;;22.70;9.85;;;6.60;99.90;;;;;;5033314;28;20029;-70
2023/04/22 03:06:38;;;;;;;20.60;9.65;;;6.60;99.90;;;;;;5036704;28;20100;-72
2023/04/22 03:09:04;;;;;;;19.70;10.23;;;6.60;99.90;;;;;;5035451;28;20444;-75
2023/04/22 03:11:29;;;;;;;21.33;9.80;;;6.60;99.90;;;;;;5029915;28;20409;-72
2023/04/22 03:13:55;;;;;;;21.55;10.57;;;6.60;99.90;;;;;;5032561;28;20038;-72
2023/04/22 03:16:23;;;;;;;17.58;9.30;;;6.60;99.90;;;;;;5039167;28;20063;-72
2023/04/22 03:18:48;;;;;;;22.48;10.35;;;6.70;99.90;;;;;;5032355;28;20097;-71
2023/04/22 03:21:14;;;;;;;22.90;10.65;;;6.70;99.90;;;;;;5030688;28;20040;-72
2023/04/22 03:23:42;;;;;;;20.33;9.65;;;6.70;99.90;;;;;;5033413;28;20036;-72
2023/04/22 03:26:08;;;;;;;19.90;9.55;;;6.70;99.90;;;;;;5033940;28;20041;-72
2023/04/22 03:28:36;;;;;;;20.58;9.45;;;6.70;99.90;;;;;;5030763;28;20029;-71
2023/04/22 03:31:02;;;;;;;21.63;10.30;;;6.80;99.90;;;;;;5025918;28;20154;-71
2023/04/22 03:33:27;;;;;;;20.75;10.50;;;6.80;99.90;;;;;;5031822;28;20057;-71
2023/04/22 03:35:54;;;;;;;24.02;10.35;;;6.80;99.90;;;;;;5035116;28;20040;-71
2023/04/22 03:38:19;;;;;;;21.70;10.40;;;6.90;99.90;;;;;;5032626;28;20038;-70
2023/04/22 03:40:45;;;;;;;20.45;9.82;;;6.90;99.90;;;;;;5037744;28;20447;-72
2023/04/22 03:43:10;;;;;;;24.33;10.90;;;7.00;99.90;;;;;;5035476;28;20057;-71
2023/04/22 03:45:36;;;;;;;25.00;11.85;;;7.00;99.90;;;;;;5030025;28;20440;-72
2023/04/22 03:48:04;;;;;;;25.45;11.43;;;7.00;99.90;;;;;;5032319;28;20025;-72
2023/04/22 03:50:33;;;;;;;18.02;9.50;;;7.10;99.90;;;;;;5041642;28;20048;-72
2023/04/22 03:52:58;;;;;;;20.92;10.27;;;7.10;99.90;;;;;;5031153;28;20481;-72
2023/04/22 03:55:24;;;;;;;25.90;10.85;;;7.10;99.90;;;;;;5031515;28;20041;-71
2023/04/22 03:57:49;;;;;;;20.52;10.65;;;7.10;99.90;;;;;;5027549;28;20029;-70
2023/04/22 04:00:25;;;;;;;22.30;10.45;;;7.10;99.90;;;;;;5037003;28;20493;-71
2023/04/22 04:02:50;;;;;;;20.33;10.70;;;7.20;99.90;;;;;;5034260;28;20094;-70
2023/04/22 04:05:19;;;;;;;19.42;10.38;;;7.20;99.90;;;;;;5036195;28;20033;-72
2023/04/22 04:07:44;;;;;;;21.40;10.75;;;7.20;99.90;;;;;;5039076;28;20120;-70
2023/04/22 04:10:13;;;;;;;23.25;11.38;;;7.20;99.90;;;;;;5037285;28;20116;-72
2023/04/22 04:12:38;;;;;;;19.83;10.25;;;7.20;99.90;;;;;;5030326;28;20061;-71
2023/04/22 04:15:05;;;;;;;19.95;10.40;;;7.20;99.90;;;;;;5035806;28;20658;-72
2023/04/22 04:17:30;;;;;;;21.23;10.65;;;7.20;99.90;;;;;;5030309;28;20041;-72
2023/04/22 04:20:02;;;;;;;21.15;10.77;;;7.20;99.90;;;;;;5030393;28;20444;-72
2023/04/22 04:22:28;;;;;;;23.88;11.02;;;7.30;99.90;;;;;;5032530;28;20156;-70
2023/04/22 04:25:02;;;;;;;20.73;10.27;;;7.30;99.90;;;;;;5035488;28;20882;-70
2023/04/22 04:27:28;;;;;;;24.90;12.07;;;7.30;99.90;;;;;;5030731;28;20107;-71
2023/04/22 04:29:59;;;;;;;20.55;10.57;;;7.30;99.90;;;;;;5033070;28;20417;-71
2023/04/22 04:32:25;;;;;;;20.63;10.98;;;7.40;99.90;;;;;;5034577;28;20491;-72
2023/04/22 04:34:51;;;;;;;22.83;10.65;;;7.40;99.90;;;;;;5027349;28;20089;-72
2023/04/22 04:37:17;;;;;;;25.00;10.07;;;7.40;99.90;;;;;;5028419;28;20649;-67
2023/04/22 04:39:43;;;;;;;17.15;9.25;;;7.40;99.90;;;;;;5033942;28;20041;-74
2023/04/22 04:42:08;;;;;;;21.83;10.18;;;7.40;99.90;;;;;;5037105;28;20029;-71
2023/04/22 04:44:35;;;;;;;18.92;10.02;;;7.40;99.90;;;;;;5025603;28;20493;-73
2023/04/22 04:47:01;;;;;;;21.52;10.30;;;7.50;99.90;;;;;;5040046;28;20485;-70
2023/04/22 04:49:30;;;;;;;21.95;10.60;;;7.50;99.90;;;;;;5042036;28;20880;-72
2023/04/22 04:52:01;;;;;;;23.23;10.57;;;7.50;99.90;;;;;;5030955;28;20512;-71
2023/04/22 04:54:27;;;;;;;21.73;12.00;;;7.60;99.90;;;;;;5038970;28;20045;-70
2023/04/22 04:56:56;;;;;;;21.90;11.60;;;7.60;99.90;;;;;;5038959;28;20029;-74
2023/04/22 04:59:22;;;;;;;20.38;10.60;;;7.60;99.90;;;;;;5040860;28;20025;-72
2023/04/22 05:01:47;;;;;;;23.95;10.32;;;7.70;99.90;;;;;;5026518;28;20045;-72
2023/04/22 05:04:13;;;;;;;23.52;11.65;;;7.70;99.90;;;;;;5028598;28;20034;-72
2023/04/22 05:06:41;;;;;;;20.80;10.95;;;7.80;99.90;;;;;;5029369;28;20140;-73
2023/04/22 05:09:06;;;;;;;22.00;10.98;;;7.80;99.90;;;;;;5031270;28;20060;-72
2023/04/22 05:11:35;;;;;;;20.13;10.02;;;7.80;99.90;;;;;;5034569;28;20494;-70
2023/04/22 05:14:06;;;;;;;21.33;10.43;;;7.90;99.90;;;;;;5032229;28;20055;-72
2023/04/22 05:16:32;;;;;;;25.90;11.25;;;7.90;99.90;;;;;;5037331;28;20036;-72
2023/04/22 05:19:01;;;;;;;21.73;10.45;;;7.90;99.90;;;;;;5034092;28;20034;-72
2023/04/22 05:21:26;;;;;;;22.25;9.98;;;8.00;99.90;;;;;;5031521;28;20551;-72
2023/04/22 05:23:52;;;;;;;21.63;10.70;;;8.00;99.90;;;;;;5028319;28;20490;-72
2023/04/22 05:26:17;;;;;;;19.95;10.38;;;8.00;99.90;;;;;;5040257;28;20036;-72
2023/04/22 05:28:46;;;;;;;21.15;10.38;;;8.10;99.90;;;;;;5040467;28;20178;-72
2023/04/22 05:31:12;;;;;;;24.95;10.00;;;8.10;99.90;;;;;;5037657;28;20076;-71
2023/04/22 05:33:43;;;;;;;22.60;10.57;;;8.10;99.90;;;;;;5036201;28;20061;-71
2023/04/22 05:36:09;;;;;;;19.63;10.00;;;8.20;99.90;;;;;;5041887;28;20041;-72
2023/04/22 05:38:34;;;;;;;23.10;10.80;;;8.20;99.90;;;;;;5040279;28;20098;-72
2023/04/22 05:41:00;;;;;;;20.45;11.30;;;8.20;99.90;;;;;;5040594;28;20033;-70
2023/04/22 05:43:25;;;;;;;20.63;10.10;;;8.30;99.90;;;;;;5038154;28;20071;-72
2023/04/22 05:46:00;;;;;;;25.77;10.88;;;8.30;99.90;;;;;;5036025;28;20112;-72
2023/04/22 05:48:28;;;;;;;20.75;10.95;;;8.40;99.90;;;;;;5037202;28;20037;-73
2023/04/22 05:50:54;;;;;;;21.08;11.32;;;8.40;99.90;;;;;;5033748;28;20112;-73
2023/04/22 05:53:25;;;;;;;19.63;10.23;;;8.50;99.90;;;;;;5026528;28;20136;-73
2023/04/22 05:55:52;;;;;;;22.52;9.93;;;8.50;99.90;;;;;;5031404;28;20029;-72
2023/04/22 05:58:17;;;;;;;19.35;9.45;;;8.60;99.90;;;;;;5039904;28;20036;-72
2023/04/22 06:00:43;;;;;;;19.67;9.68;;;8.60;99.90;;;;;;5030113;28;20029;-72
2023/04/22 06:03:08;;;;;;;16.50;8.85;;;8.70;99.90;;;;;;5026680;28;20399;-71
2023/04/22 06:05:34;;;;;;;18.30;9.55;;;8.80;99.90;;;;;;5037571;28;20025;-72
2023/04/22 06:07:59;;;;;;;16.48;8.65;;;8.80;99.90;;;;;;5031778;28;20056;-71
2023/04/22 06:10:25;;;;;;;16.30;8.60;;;8.90;99.90;;;;;;5034906;28;20140;-70
2023/04/22 06:12:51;;;;;;;16.42;9.00;;;9.00;99.90;;;;;;5025821;28;20033;-71
2023/04/22 06:15:16;;;;;;;14.95;8.35;;;9.00;99.90;;;;;;5033888;28;20094;-69
2023/04/22 06:17:43;;;;;;;15.93;8.85;;;9.10;99.90;;;;;;5037281;28;20691;-72
2023/04/22 06:20:09;;;;;;;18.25;9.23;;;9.10;99.90;;;;;;5035072;28;20034;-71
2023/04/22 06:22:35;;;;;;;15.98;7.90;;;9.20;99.90;;;;;;5032937;28;20061;-72
2023/04/22 06:25:01;;;;;;;16.70;8.70;;;9.30;99.90;;;;;;5032099;28;20056;-72
2023/04/22 06:27:27;;;;;;;14.50;7.85;;;9.30;99.90;;;;;;5035251;28;20034;-73
2023/04/22 06:29:52;;;;;;;15.63;8.05;;;9.40;99.90;;;;;;5031901;28;20037;-70
2023/04/22 06:32:18;;;;;;;17.08;8.38;;;9.40;99.90;;;;;;5030973;28;20095;-72
2023/04/22 06:34:43;;;;;;;16.20;7.90;;;9.50;99.90;;;;;;5028965;28;20053;-71
2023/04/22 06:37:09;;;;;;;13.60;7.70;;;9.60;99.90;;;;;;5031216;28;20416;-70
2023/04/22 06:39:35;;;;;;;16.85;8.35;;;9.60;99.90;;;;;;5025667;28;20129;-71
2023/04/22 06:42:12;;;;;;;12.60;7.40;;;9.80;99.90;;;;;;5036734;28;20128;-72
2023/04/22 06:44:41;;;;;;;14.50;7.28;;;9.80;99.90;;;;;;5041789;28;20136;-71
2023/04/22 06:47:07;;;;;;;14.40;8.15;;;9.80;99.90;;;;;;5039501;28;20044;-71
2023/04/22 06:49:34;;;;;;;15.75;7.80;;;9.90;99.90;;;;;;5037367;28;20033;-71
2023/04/22 06:52:00;;;;;;;13.55;6.75;;;10.00;99.90;;;;;;5036201;28;20041;-70
2023/04/22 06:54:25;;;;;;;13.50;7.40;;;10.20;99.90;;;;;;5031864;28;20045;-70
2023/04/22 06:56:51;;;;;;;12.35;7.65;;;10.30;99.90;;;;;;5032453;28;20057;-70
2023/04/22 06:59:16;;;;;;;14.52;7.18;;;10.50;99.90;;;;;;5032913;28;20724;-71
2023/04/22 07:01:42;;;;;;;12.35;7.45;;;10.60;99.90;;;;;;5042536;28;20116;-71
2023/04/22 07:04:07;;;;;;;11.20;6.60;;;11.00;99.90;;;;;;5036061;28;20041;-71
2023/04/22 07:06:36;;;;;;;10.57;6.82;;;11.30;99.90;;;;;;5032609;28;20414;-73
2023/04/22 07:09:02;;;;;;;11.57;6.10;;;11.90;99.90;;;;;;5032948;28;20409;-70
2023/04/22 07:11:27;;;;;;;9.60;5.70;;;12.30;99.90;;;;;;5033769;28;20645;-72
2023/04/22 07:14:02;;;;;;;9.35;4.85;;;12.70;99.90;;;;;;5026464;28;20037;-72
2023/04/22 07:16:27;;;;;;;8.98;5.00;;;13.30;99.90;;;;;;5033943;28;20041;-73
2023/04/22 07:18:53;;;;;;;9.88;4.40;;;13.60;99.90;;;;;;5032631;28;20816;-72
2023/04/22 07:21:19;;;;;;;8.10;4.40;;;13.50;99.90;;;;;;5031681;28;20037;-71
2023/04/22 07:23:45;;;;;;;8.35;4.80;;;13.30;99.90;;;;;;5028616;28;20533;-71
2023/04/22 07:26:13;;;;;;;8.13;4.60;;;13.30;99.90;;;;;;5031348;28;20057;-71
2023/04/22 07:28:42;;;;;;;7.57;4.32;;;13.30;99.90;;;;;;5034859;28;20032;-72
2023/04/22 07:31:07;;;;;;;8.00;4.85;;;13.40;99.90;;;;;;5031304;28;20784;-71
2023/04/22 07:33:39;;;;;;;11.10;5.10;;;13.50;99.90;;;;;;5026130;28;20458;-71
2023/04/22 07:36:05;;;;;;;7.65;3.58;;;13.60;99.90;;;;;;5029200;28;20564;-73
2023/04/22 07:38:31;;;;;;;9.65;4.03;;;13.80;99.90;;;;;;5040753;28;20033;-73
2023/04/22 07:40:56;;;;;;;8.27;4.13;;;14.00;99.90;;;;;;5031371;28;20125;-72
2023/04/22 07:43:22;;;;;;;7.03;4.20;;;14.20;99.90;;;;;;5026164;28;20033;-71
2023/04/22 07:45:47;;;;;;;5.80;3.60;;;14.50;99.90;;;;;;5029270;28;20143;-71
2023/04/22 07:48:13;;;;;;;5.90;3.42;;;14.70;99.90;;;;;;5030731;28;20037;-72
2023/04/22 07:50:39;;;;;;;7.57;4.18;;;14.90;99.90;;;;;;5038417;28;20040;-73
2023/04/22 07:53:04;;;;;;;6.45;4.00;;;15.00;99.90;;;;;;5034775;28;20032;-73
2023/04/22 07:55:30;;;;;;;7.93;4.50;;;15.00;99.90;;;;;;5037936;28;20092;-73
2023/04/22 07:57:56;;;;;;;5.97;3.63;;;15.10;99.90;;;;;;5030796;28;20030;-72
2023/04/22 08:00:22;;;;;;;7.68;4.47;;;15.00;99.90;;;;;;5033424;28;20041;-73
2023/04/22 08:02:47;;;;;;;6.93;4.13;;;15.10;99.90;;;;;;5029920;28;20045;-72
2023/04/22 08:05:13;;;;;;;7.75;4.50;;;15.20;99.90;;;;;;5028715;28;20037;-72
2023/04/22 08:07:39;;;;;;;7.60;4.18;;;15.10;99.90;;;;;;5027602;28;20606;-73
2023/04/22 08:10:05;;;;;;;9.43;4.38;;;15.00;99.90;;;;;;5030331;28;20044;-73
2023/04/22 08:12:31;;;;;;;8.88;4.28;;;15.10;99.90;;;;;;5028353;28;20167;-71
2023/04/22 08:14:57;;;;;;;6.40;3.65;;;15.10;99.90;;;;;;5032237;28;20165;-71
2023/04/22 08:17:22;;;;;;;6.93;4.03;;;14.90;99.90;;;;;;5034999;28;20744;-73
2023/04/22 08:19:48;;;;;;;5.82;3.67;;;14.90;99.90;;;;;;5033906;28;20179;-72
2023/04/22 08:22:16;;;;;;;7.43;3.85;;;15.00;99.90;;;;;;5032875;28;20033;-71
2023/04/22 08:24:42;;;;;;;5.10;3.35;;;15.00;99.90;;;;;;5033921;28;20120;-72
2023/04/22 08:27:07;;;;;;;7.72;4.10;;;15.00;99.90;;;;;;5032183;28;20745;-72
2023/04/22 08:29:33;;;;;;;4.65;3.15;;;15.10;99.90;;;;;;5032794;28;20057;-71
2023/04/22 08:31:58;;;;;;;5.88;3.38;;;15.10;99.90;;;;;;5032228;28;20103;-73
2023/04/22 08:34:26;;;;;;;6.63;3.15;;;15.00;99.90;;;;;;5035539;28;20124;-71
2023/04/22 08:36:52;;;;;;;6.35;3.53;;;15.20;99.90;;;;;;5032758;28;20049;-73
2023/04/22 08:39:17;;;;;;;6.80;3.55;;;15.40;99.90;;;;;;5029362;28;20037;-72
2023/04/22 08:41:43;;;;;;;6.93;3.65;;;15.50;99.90;;;;;;5034523;28;20416;-71
2023/04/22 08:44:10;;;;;;;4.22;3.17;;;15.50;99.90;;;;;;5038554;28;20044;-71
2023/04/22 08:46:36;;;;;;;4.43;2.88;;;15.50;99.90;;;;;;5030397;28;20041;-72
2023/04/22 08:49:03;;;;;;;6.10;3.10;;;15.60;99.90;;;;;;5045973;28;20186;-72
2023/04/22 08:51:34;;;;;;;6.15;3.10;;;15.70;99.90;;;;;;5040249;28;20095;-74
2023/04/22 08:54:00;;;;;;;4.45;2.90;;;15.80;99.90;;;;;;5040976;28;20037;-71
2023/04/22 08:56:27;;;;;;;5.22;2.72;;;15.90;99.90;;;;;;5029960;28;20654;-71
2023/04/22 08:58:56;;;;;;;5.88;2.83;;;15.90;99.90;;;;;;5029074;28;20037;-71
2023/04/22 09:01:23;;;;;;;4.50;2.65;;;16.10;99.90;;;;;;5040061;28;20098;-70
2023/04/22 09:03:48;;;;;;;6.47;3.20;;;16.10;99.90;;;;;;5040779;28;20044;-72
2023/04/22 09:06:18;;;;;;;5.32;3.15;;;16.30;99.90;;;;;;5030156;28;20033;-71
2023/04/22 09:08:44;;;;;;;5.07;2.90;;;16.50;99.90;;;;;;5036898;28;20545;-73
2023/04/22 09:11:10;;;;;;;4.28;2.60;;;16.60;99.90;;;;;;5044042;28;20040;-72
2023/04/22 09:13:36;;;;;;;4.88;2.70;;;16.60;99.90;;;;;;5031760;28;20517;-71
2023/04/22 09:16:02;;;;;;;3.78;2.47;;;16.60;99.90;;;;;;5036313;28;20040;-73
2023/04/22 09:18:37;;;;;;;4.65;2.75;;;16.60;99.90;;;;;;5036492;28;20033;-72
2023/04/22 09:21:09;;;;;;;6.70;3.20;;;16.70;99.90;;;;;;5034410;28;20067;-71
2023/04/22 09:23:49;;;;;;;4.40;2.72;;;16.90;99.90;;;;;;5035296;28;20084;-71
2023/04/22 09:26:17;;;;;;;3.13;2.17;;;17.20;99.90;;;;;;5034034;28;20036;-73
2023/04/22 09:28:59;;;;;;;3.75;2.17;;;17.30;99.90;;;;;;5033180;28;20088;-75
2023/04/22 09:31:28;;;;;;;4.68;2.58;;;17.40;99.90;;;;;;5036264;28;20043;-72
2023/04/22 09:34:04;;;;;;;7.05;3.45;;;17.30;99.90;;;;;;5028408;28;20037;-71
2023/04/22 09:36:39;;;;;;;5.78;2.80;;;17.40;99.90;;;;;;5034214;28;20045;-71
2023/04/22 09:39:08;;;;;;;5.78;2.80;;;17.30;99.90;;;;;;5063869;28;20503;-72
2023/04/22 09:41:37;;;;;;;3.08;2.17;;;17.40;99.90;;;;;;5037675;28;20175;-72
2023/04/22 09:44:08;;;;;;;3.75;2.15;;;17.30;99.90;;;;;;5034746;28;23762;-70
2023/04/22 09:46:34;;;;;;;5.57;2.75;;;17.30;99.90;;;;;;5031682;28;20037;-71
2023/04/22 09:49:00;;;;;;;5.45;2.65;;;17.50;99.90;;;;;;5048088;28;20032;-72
2023/04/22 09:51:26;;;;;;;4.85;2.72;;;17.70;99.90;;;;;;5038259;28;20405;-71
2023/04/22 09:54:05;;;;;;;4.28;2.38;;;17.90;99.90;;;;;;5036693;28;20063;-72
2023/04/22 09:56:48;;;;;;;6.03;2.38;;;18.00;99.90;;;;;;5040690;28;20044;-72
2023/04/22 09:59:23;;;;;;;5.65;2.50;;;18.00;99.90;;;;;;5030654;28;20431;-70
2023/04/22 10:01:51;;;;;;;4.45;2.33;;;18.20;99.90;;;;;;5028685;28;20029;-70
2023/04/22 10:04:24;;;;;;;4.70;3.28;;;18.40;99.90;;;;;;5031529;28;20041;-73
2023/04/22 10:06:51;;;;;;;5.88;2.50;;;18.40;99.90;;;;;;5038424;28;20044;-71
2023/04/22 10:09:18;;;;;;;5.43;3.10;;;18.50;99.90;;;;;;5035729;28;20060;-71
2023/04/22 10:11:44;;;;;;;4.68;2.70;;;18.60;99.90;;;;;;5028622;28;20095;-72
2023/04/22 10:14:10;;;;;;;3.17;2.25;;;18.80;99.90;;;;;;5030967;28;20439;-72
2023/04/22 10:16:38;;;;;;;5.70;2.53;;;18.90;99.90;;;;;;5028179;28;20112;-71
2023/04/22 10:19:06;;;;;;;6.00;2.55;;;19.00;99.90;;;;;;5032576;28;20033;-73
2023/04/22 10:21:33;;;;;;;3.47;2.30;;;19.00;99.90;;;;;;5034164;28;20091;-73
2023/04/22 10:23:59;;;;;;;5.55;2.90;;;19.10;99.90;;;;;;5033055;28;20037;-71
2023/04/22 10:26:38;;;;;;;4.30;2.78;;;19.10;99.90;;;;;;5033603;28;20064;-72
2023/04/22 10:29:06;;;;;;;4.07;2.50;;;19.00;99.90;;;;;;5064081;28;20041;-72
2023/04/22 10:31:32;;;;;;;7.68;2.63;;;19.10;99.90;;;;;;5026844;28;20033;-73
2023/04/22 10:34:14;;;;;;;5.72;3.25;;;19.10;99.90;;;;;;5030706;28;20033;-70
2023/04/22 10:36:56;;;;;;;5.55;2.35;;;19.20;99.90;;;;;;5032521;28;20038;-72
2023/04/22 10:39:23;;;;;;;3.33;2.13;;;19.30;99.90;;;;;;5033181;28;20124;-71
2023/04/22 10:41:51;;;;;;;5.40;2.50;;;19.40;99.90;;;;;;5036712;28;20040;-73
2023/04/22 10:44:19;;;;;;;4.93;2.45;;;19.40;99.90;;;;;;5034218;28;20123;-73
2023/04/22 10:46:58;;;;;;;6.55;2.67;;;19.40;99.90;;;;;;5032376;28;20033;-72
2023/04/22 10:49:28;;;;;;;4.60;2.63;;;19.30;99.90;;;;;;5047829;28;20247;-73
2023/04/22 10:51:57;;;;;;;4.57;2.55;;;19.10;99.90;;;;;;5033821;28;20036;-73
2023/04/22 10:54:35;;;;;;;7.10;2.70;;;18.90;99.90;;;;;;5027730;28;20064;-70
2023/04/22 10:57:09;;;;;;;4.57;2.65;;;18.80;99.90;;;;;;5032255;28;20120;-72
2023/04/22 10:59:40;;;;;;;4.25;2.35;;;18.60;99.90;;;;;;5034552;28;20397;-70
2023/04/22 11:02:12;;;;;;;5.18;2.83;;;18.40;99.90;;;;;;5034188;28;20037;-72
2023/04/22 11:04:41;;;;;;;6.18;2.80;;;18.20;99.90;;;;;;5032988;28;20513;-71
2023/04/22 11:07:21;;;;;;;3.97;2.45;;;18.00;99.90;;;;;;5028676;28;20048;-72
2023/04/22 11:09:57;;;;;;;3.90;2.50;;;17.90;99.90;;;;;;5032174;28;20761;-72
2023/04/22 11:12:37;;;;;;;4.07;2.80;;;17.70;99.90;;;;;;5024627;28;20045;-71
2023/04/22 11:15:10;;;;;;;8.55;3.00;;;17.50;99.90;;;;;;5031854;28;20114;-72
2023/04/22 11:17:37;;;;;;;5.50;3.33;;;17.40;99.90;;;;;;5036539;28;20175;-73
2023/04/22 11:20:05;;;;;;;5.30;2.95;;;17.20;99.90;;;;;;5033754;28;20056;-73
2023/04/22 11:22:38;;;;;;;4.55;2.83;;;17.30;99.90;;;;;;5035999;28;20440;-72
2023/04/22 11:25:05;;;;;;;5.55;2.50;;;17.40;99.90;;;;;;5035860;28;20045;-70
2023/04/22 11:27:38;;;;;;;7.15;2.78;;;17.30;99.90;;;;;;5033631;28;20045;-73
2023/04/22 11:30:06;;;;;;;4.78;3.13;;;17.30;99.90;;;;;;5030503;28;20502;-72
2023/04/22 11:32:33;;;;;;;4.47;2.85;;;17.10;99.90;;;;;;5031386;28;20042;-71
2023/04/22 11:35:10;;;;;;;5.05;2.72;;;17.00;99.90;;;;;;5036369;28;20025;-73
2023/04/22 11:38:07;;;;;;;5.05;2.88;;;16.80;99.90;;;;;;5027217;28;20499;-73
2023/04/22 11:40:38;;;;;;;5.50;3.13;;;16.60;99.90;;;;;;5020952;28;20041;-71
2023/04/22 11:43:05;;;;;;;5.55;2.90;;;16.30;99.90;;;;;;5032727;28;20603;-72
2023/04/22 11:45:32;;;;;;;6.25;3.22;;;16.10;99.90;;;;;;5029915;28;20086;-74
2023/04/22 11:48:03;;;;;;;9.70;3.85;;;15.90;99.90;;;;;;5035379;28;20069;-71
2023/04/22 11:50:32;;;;;;;10.75;4.72;;;15.70;99.90;;;;;;5044427;28;20067;-70
2023/04/22 11:53:03;;;;;;;7.53;3.95;;;15.50;99.90;;;;;;5031236;28;20049;-72
2023/04/22 11:55:31;;;;;;;7.95;3.88;;;15.30;99.90;;;;;;5031192;28;20034;-71
2023/04/22 11:58:11;;;;;;;6.47;3.88;;;15.10;99.90;;;;;;5032860;28;20029;-71
2023/04/22 12:00:42;;;;;;;7.35;4.40;;;15.00;99.90;;;;;;5029299;28;20033;-72
2023/04/22 12:03:12;;;;;;;8.73;4.82;;;14.80;99.90;;;;;;5033962;28;20693;-71
2023/04/22 12:05:54;;;;;;;10.07;5.07;;;14.70;99.90;;;;;;5031715;28;20068;-71
2023/04/22 12:08:42;;;;;;;13.32;5.97;;;14.50;99.90;;;;;;5026566;28;20040;-71
2023/04/22 12:11:09;;;;;;;9.70;5.45;;;14.40;99.90;;;;;;5031463;28;20034;-73
2023/04/22 12:13:49;;;;;;;10.68;5.65;;;14.30;99.90;;;;;;5033610;28;20052;-71
2023/04/22 12:16:17;;;;;;;8.98;5.07;;;14.20;99.90;;;;;;5032326;28;20033;-71
2023/04/22 12:18:51;;;;;;;9.45;5.65;;;14.10;99.90;;;;;;5034982;28;20539;-76
2023/04/22 12:21:27;;;;;;;10.25;5.65;;;14.00;99.90;;;;;;5032547;28;20578;-73
2023/04/22 12:23:54;;;;;;;11.13;6.25;;;13.90;99.90;;;;;;5036478;28;20037;-71
2023/04/22 12:26:23;;;;;;;11.70;6.80;;;13.80;99.90;;;;;;5036101;28;20040;-72
2023/04/22 12:28:59;;;;;;;12.77;6.50;;;13.70;99.90;;;;;;5037079;28;20137;-72
2023/04/22 12:31:27;;;;;;;14.30;6.47;;;13.50;99.90;;;;;;5031180;28;20042;-72
2023/04/22 12:33:53;;;;;;;12.82;6.47;;;13.40;99.90;;;;;;5040320;28;20033;-71
2023/04/22 12:36:25;;;;;;;12.15;6.47;;;13.30;99.90;;;;;;5034470;28;20127;-72
2023/04/22 12:38:51;;;;;;;13.73;7.10;;;13.30;99.90;;;;;;5043639;28;20037;-72
2023/04/22 12:41:20;;;;;;;11.93;7.30;;;13.30;99.90;;;;;;5034125;28;20041;-72
2023/04/22 12:43:46;;;;;;;13.32;6.55;;;13.30;99.90;;;;;;5035703;28;20378;-72
2023/04/22 12:46:12;;;;;;;12.68;7.40;;;13.30;99.90;;;;;;5032315;28;20045;-72